Novo Planalto, Brazil
Current Conditions -  °F | °C
As of 2:00 PM on Thursday 18 Dec 2014 (Local Time) from SBBR Reporting Station
Broken Clouds Broken Clouds  
Wind Chill: 79°   Ceiling: 3500
Heat Index: 81°   Visibility: 6mi
Dew Point: 64°   Wind: 5mph
Humidity: 61%   Direction: 10°N
Pressure: 30"   Gusts: NA
Location:  13.24°S, 49.5°W
Report Text: SBBR 181600Z 01004KT 9999 BKN035 FEW040TCU BKN070 26/18 Q1016
Loading
Personal Weather Stations






























Interactive Weather Map New forecast layout! Learn more

10-Day Weather Forecast

Advertisements
Track Severe Weather on mobile